Observation data for Sundown on 04/16/2021      Previous  Date  Next       Current Mesonet Observations  Soil Data  Daily Summary Page  Observations in Plain Language
KSDS 160500Z 14007KT 08/08 A2988 RMK A01 T00820078  RH  100%=      5-min Rain = 0
KSDS 160505Z 14007KT 08/08 A2989 RMK A01 T00830078  RH  100%=      5-min Rain = 0
KSDS 160510Z 14008KT 08/08 A2988 RMK A01 T00830078  RH  100%=      5-min Rain = 0
KSDS 160515Z 14008KT 08/08 A2988 RMK A01 T00830079  RH  100%=      5-min Rain = 0
KSDS 160520Z 14008KT 08/08 A2988 RMK A01 T00830079  RH  100%=      5-min Rain = 0
KSDS 160525Z 13008KT 08/08 A2987 RMK A01 T00830079  RH  100%=      5-min Rain = 0
KSDS 160530Z 13007KT 08/08 A2987 RMK A01 T00830079  RH  100%=      5-min Rain = 0
KSDS 160535Z 13007KT 08/08 A2987 RMK A01 T00840079  RH  100%=      5-min Rain = 0
KSDS 160540Z 14008KT 08/08 A2987 RMK A01 T00840080  RH  100%=      5-min Rain = 0
KSDS 160545Z 14010KT 08/08 A2987 RMK A01 T00840080  RH  100%=      5-min Rain = 0
KSDS 160550Z 14009KT 08/08 A2987 RMK A01 T00840080  RH  100%=      5-min Rain = 0.01
KSDS 160555Z 14008KT 09/08 A2986 RMK A01 T00850080  RH  100%=      5-min Rain = 0
KSDS 160600Z 14010KT 09/08 A2986 RMK A01 T00850080  RH  100%=      5-min Rain = 0
KSDS 160605Z 14009KT 09/08 A2986 RMK A01 T00850080  RH  100%=      5-min Rain = 0
KSDS 160610Z 14008KT 09/08 A2986 RMK A01 T00850080  RH  100%=      5-min Rain = 0
KSDS 160615Z 14011KT 09/08 A2986 RMK A01 T00850080  RH  100%=      5-min Rain = 0
KSDS 160620Z 14009KT 09/08 A2986 RMK A01 T00850080  RH  100%=      5-min Rain = 0
KSDS 160625Z 14009KT 09/08 A2986 RMK A01 T00850081  RH  100%=      5-min Rain = 0
KSDS 160630Z 14007KT 09/08 A2986 RMK A01 T00850081  RH  100%=      5-min Rain = 0
KSDS 160635Z 13007KT 09/08 A2986 RMK A01 T00850081  RH  100%=      5-min Rain = 0
KSDS 160640Z 13007KT 09/08 A2986 RMK A01 T00850081  RH  100%=      5-min Rain = 0
KSDS 160645Z 13006KT 09/08 A2987 RMK A01 T00850081  RH  100%=      5-min Rain = 0
KSDS 160650Z 14004KT 09/08 A2987 RMK A01 T00850081  RH  100%=      5-min Rain = 0
KSDS 160655Z 14006KT 09/08 A2987 RMK A01 T00860081  RH  100%=      5-min Rain = 0
KSDS 160700Z 14005KT 09/08 A2987 RMK A01 T00860081  RH  100%=      5-min Rain = 0
KSDS 160705Z 15004KT 09/08 A2987 RMK A01 T00860082  RH  100%=      5-min Rain = 0
KSDS 160710Z 14005KT 09/08 A2986 RMK A01 T00860082  RH  100%=      5-min Rain = 0
KSDS 160715Z 15005KT 09/08 A2986 RMK A01 T00860082  RH  100%=      5-min Rain = 0
KSDS 160720Z 15006KT 09/08 A2986 RMK A01 T00870082  RH  100%=      5-min Rain = 0
KSDS 160725Z 15005KT 09/08 A2986 RMK A01 T00860082  RH  100%=      5-min Rain = 0
KSDS 160730Z 14005KT 09/08 A2986 RMK A01 T00870082  RH  100%=      5-min Rain = 0
KSDS 160735Z 14005KT 09/08 A2985 RMK A01 T00870083  RH  100%=      5-min Rain = 0
KSDS 160740Z 15006KT 09/08 A2985 RMK A01 T00870083  RH  100%=      5-min Rain = 0
KSDS 160745Z 15005KT 09/08 A2985 RMK A01 T00870082  RH  100%=      5-min Rain = 0
KSDS 160750Z 16006KT 09/08 A2985 RMK A01 T00870083  RH  100%=      5-min Rain = 0
KSDS 160755Z 16006KT 09/08 A2985 RMK A01 T00870083  RH  100%=      5-min Rain = 0.01
KSDS 160800Z 17007KT 09/08 A2985 RMK A01 T00880083  RH  100%=      5-min Rain = 0
KSDS 160805Z 17006KT 09/08 A2984 RMK A01 T00880083  RH  100%=      5-min Rain = 0
KSDS 160810Z 16004KT 09/08 A2985 RMK A01 T00880083  RH  100%=      5-min Rain = 0
KSDS 160815Z 31003KT 09/08 A2986 RMK A01 T00880083  RH  100%=      5-min Rain = 0
KSDS 160820Z 32000KT 09/08 A2986 RMK A01 T00880083  RH  100%=      5-min Rain = 0
KSDS 160825Z 31004KT 09/08 A2987 RMK A01 T00880084  RH  100%=      5-min Rain = 0
KSDS 160830Z 28002KT 09/08 A2986 RMK A01 T00880084  RH  100%=      5-min Rain = 0
KSDS 160835Z 33005KT 09/08 A2987 RMK A01 T00890084  RH  100%=      5-min Rain = 0
KSDS 160840Z 34006KT 09/09 A2987 RMK A01 T00890085  RH  100%=      5-min Rain = 0
KSDS 160845Z 33005KT 09/08 A2987 RMK A01 T00890084  RH  100%=      5-min Rain = 0
KSDS 160850Z 32003KT 09/08 A2986 RMK A01 T00880084  RH  100%=      5-min Rain = 0
KSDS 160855Z 33003KT 09/08 A2986 RMK A01 T00880084  RH  100%=      5-min Rain = 0
KSDS 160900Z 34001KT 09/08 A2986 RMK A01 T00890084  RH  100%=      5-min Rain = 0
KSDS 160905Z 02000KT 09/08 A2986 RMK A01 T00880084  RH  100%=      5-min Rain = 0
KSDS 160910Z 36000KT 09/08 A2986 RMK A01 T00880083  RH  100%=      5-min Rain = 0
KSDS 160915Z 34002KT 09/08 A2986 RMK A01 T00880084  RH  100%=      5-min Rain = 0
KSDS 160920Z 34004KT 09/08 A2987 RMK A01 T00890084  RH  100%=      5-min Rain = 0
KSDS 160925Z 33001KT 09/09 A2986 RMK A01 T00890085  RH  100%=      5-min Rain = 0
KSDS 160930Z 35003KT 09/08 A2986 RMK A01 T00890084  RH  100%=      5-min Rain = 0
KSDS 160935Z 35005KT 09/09 A2987 RMK A01 T00890085  RH  100%=      5-min Rain = 0
KSDS 160940Z 35005KT 09/09 A2987 RMK A01 T00900085  RH  100%=      5-min Rain = 0
KSDS 160945Z 35005KT 09/09 A2987 RMK A01 T00890085  RH  100%=      5-min Rain = 0
KSDS 160950Z 35008KT 09/09 A2988 RMK A01 T00900085  RH  100%=      5-min Rain = 0
KSDS 160955Z 36008KT 09/09 A2988 RMK A01 T00890085  RH  100%=      5-min Rain = 0
KSDS 161000Z 00007KT 09/09 A2988 RMK A01 T00890085  RH  100%=      5-min Rain = 0
KSDS 161005Z 01008KT 09/08 A2988 RMK A01 T00890084  RH  100%=      5-min Rain = 0
KSDS 161010Z 01007KT 09/08 A2987 RMK A01 T00880084  RH  100%=      5-min Rain = 0
KSDS 161015Z 01005KT 09/08 A2987 RMK A01 T00880083  RH  100%=      5-min Rain = 0
KSDS 161020Z 02006KT 09/08 A2988 RMK A01 T00880083  RH  100%=      5-min Rain = 0
KSDS 161025Z 02007KT 09/08 A2988 RMK A01 T00880083  RH  100%=      5-min Rain = 0
KSDS 161030Z 02007KT 09/08 A2988 RMK A01 T00880084  RH  100%=      5-min Rain = 0
KSDS 161035Z 02008KT 09/08 A2988 RMK A01 T00880083  RH  100%=      5-min Rain = 0
KSDS 161040Z 02009KT 09/08 A2988 RMK A01 T00880083  RH  100%=      5-min Rain = 0
KSDS 161045Z 02008KT 09/08 A2988 RMK A01 T00880083  RH  100%=      5-min Rain = 0
KSDS 161050Z 02010KT 09/08 A2988 RMK A01 T00870083  RH  100%=      5-min Rain = 0
KSDS 161055Z 02009KT 09/08 A2988 RMK A01 T00870083  RH  100%=      5-min Rain = 0
KSDS 161100Z 02009KT 09/08 A2988 RMK A01 T00870083  RH  100%=      5-min Rain = 0
KSDS 161105Z 02009KT 09/08 A2988 RMK A01 T00870083  RH  100%=      5-min Rain = 0
KSDS 161110Z 02009KT 09/08 A2988 RMK A01 T00870082  RH  100%=      5-min Rain = 0
KSDS 161115Z 02008KT 09/08 A2988 RMK A01 T00860081  RH  100%=      5-min Rain = 0
KSDS 161120Z 03006KT 09/08 A2988 RMK A01 T00860082  RH  100%=      5-min Rain = 0
KSDS 161125Z 02006KT 09/08 A2988 RMK A01 T00870082  RH  100%=      5-min Rain = 0
KSDS 161130Z 04005KT 09/08 A2987 RMK A01 T00870082  RH  100%=      5-min Rain = 0
KSDS 161135Z 04005KT 09/08 A2987 RMK A01 T00860082  RH  100%=      5-min Rain = 0
KSDS 161140Z 04005KT 09/08 A2987 RMK A01 T00860081  RH  100%=      5-min Rain = 0
KSDS 161145Z 05006KT 09/08 A2987 RMK A01 T00850080  RH  100%=      5-min Rain = 0
KSDS 161150Z 05006KT 08/08 A2987 RMK A01 T00840079  RH  100%=      5-min Rain = 0
KSDS 161155Z 04005KT 08/08 A2987 RMK A01 T00830078  RH  100%=      5-min Rain = 0
KSDS 161200Z 05005KT 08/08 A2987 RMK A01 T00820077  RH  100%=      5-min Rain = 0
KSDS 161205Z 05006KT 08/08 A2987 RMK A01 T00810077  RH  100%=      5-min Rain = 0
KSDS 161210Z 04005KT 08/08 A2988 RMK A01 T00810076  RH  100%=      5-min Rain = 0
KSDS 161215Z 05003KT 08/08 A2988 RMK A01 T00810077  RH  100%=      5-min Rain = 0
KSDS 161220Z 07005KT 08/08 A2988 RMK A01 T00810077  RH  100%=      5-min Rain = 0
KSDS 161225Z 07004KT 08/08 A2988 RMK A01 T00810076  RH  100%=      5-min Rain = 0
KSDS 161230Z 06005KT 08/08 A2988 RMK A01 T00810076  RH  100%=      5-min Rain = 0
KSDS 161235Z 04005KT 08/08 A2989 RMK A01 T00810077  RH  100%=      5-min Rain = 0
KSDS 161240Z 03005KT 08/08 A2989 RMK A01 T00810077  RH  100%=      5-min Rain = 0
KSDS 161245Z 04005KT 08/08 A2989 RMK A01 T00810077  RH  100%=      5-min Rain = 0
KSDS 161250Z 04005KT 08/08 A2989 RMK A01 T00810077  RH  100%=      5-min Rain = 0
KSDS 161255Z 06004KT 08/08 A299 RMK A01 T00820078  RH  100%=      5-min Rain = 0
KSDS 161300Z 07005KT 08/08 A299 RMK A01 T00810077  RH  100%=      5-min Rain = 0
KSDS 161305Z 05006KT 08/08 A299 RMK A01 T00810077  RH  100%=      5-min Rain = 0
KSDS 161310Z 04005KT 08/08 A2991 RMK A01 T00810077  RH  100%=      5-min Rain = 0
KSDS 161315Z 02005KT 08/08 A2991 RMK A01 T00820078  RH  100%=      5-min Rain = 0
KSDS 161320Z 03005KT 08/08 A2991 RMK A01 T00820078  RH  100%=      5-min Rain = 0
KSDS 161325Z 03004KT 08/08 A2992 RMK A01 T00830079  RH  100%=      5-min Rain = 0
KSDS 161330Z 04004KT 08/08 A2991 RMK A01 T00820078  RH  100%=      5-min Rain = 0
KSDS 161335Z 04004KT 08/08 A2991 RMK A01 T00820078  RH  100%=      5-min Rain = 0
KSDS 161340Z 03004KT 08/08 A2991 RMK A01 T00820078  RH  100%=      5-min Rain = 0
KSDS 161345Z 03003KT 08/08 A2991 RMK A01 T00820078  RH  100%=      5-min Rain = 0
KSDS 161350Z 01003KT 08/08 A2991 RMK A01 T00820078  RH  100%=      5-min Rain = 0
KSDS 161355Z 01003KT 08/08 A2991 RMK A01 T00830079  RH  100%=      5-min Rain = 0
KSDS 161400Z 35004KT 08/08 A2992 RMK A01 T00840080  RH  100%=      5-min Rain = 0
KSDS 161405Z 35005KT 09/08 A2992 RMK A01 T00850081  RH  100%=      5-min Rain = 0
KSDS 161410Z 34006KT 08/08 A2992 RMK A01 T00840080  RH  100%=      5-min Rain = 0
KSDS 161415Z 35005KT 08/08 A2992 RMK A01 T00840080  RH  100%=      5-min Rain = 0
KSDS 161420Z 00006KT 09/08 A2992 RMK A01 T00850081  RH  100%=      5-min Rain = 0
KSDS 161425Z 00006KT 09/08 A2993 RMK A01 T00860082  RH  100%=      5-min Rain = 0
KSDS 161430Z 35006KT 09/08 A2993 RMK A01 T00850081  RH  100%=      5-min Rain = 0
KSDS 161435Z 36007KT 09/08 A2993 RMK A01 T00870082  RH  100%=      5-min Rain = 0
KSDS 161440Z 36007KT 09/08 A2993 RMK A01 T00870083  RH  100%=      5-min Rain = 0
KSDS 161445Z 35006KT 09/08 A2993 RMK A01 T00870083  RH  100%=      5-min Rain = 0
KSDS 161450Z 35006KT 09/08 A2993 RMK A01 T00880084  RH  100%=      5-min Rain = 0
KSDS 161455Z 34005KT 09/08 A2992 RMK A01 T00880084  RH  100%=      5-min Rain = 0
KSDS 161500Z 34005KT 09/09 A2993 RMK A01 T00900085  RH  100%=      5-min Rain = 0
KSDS 161505Z 35007KT 09/09 A2992 RMK A01 T00920087  RH  100%=      5-min Rain = 0
KSDS 161510Z 35008KT 09/09 A2992 RMK A01 T00910085  RH  099%=      5-min Rain = 0
KSDS 161515Z 34007KT 09/09 A2992 RMK A01 T00920087  RH  099%=      5-min Rain = 0
KSDS 161520Z 33007KT 09/09 A2992 RMK A01 T00920085  RH  098%=      5-min Rain = 0
KSDS 161525Z 35007KT 09/09 A2993 RMK A01 T00940087  RH  098%=      5-min Rain = 0
KSDS 161530Z 35007KT 10/09 A2993 RMK A01 T00950086  RH  097%=      5-min Rain = 0
KSDS 161535Z 35007KT 10/09 A2993 RMK A01 T00960086  RH  096%=      5-min Rain = 0
KSDS 161540Z 36007KT 10/09 A2993 RMK A01 T00960087  RH  097%=      5-min Rain = 0
KSDS 161545Z 35009KT 10/09 A2993 RMK A01 T00980087  RH  096%=      5-min Rain = 0
KSDS 161550Z 35009KT 10/09 A2994 RMK A01 T01000087  RH  094%=      5-min Rain = 0
KSDS 161555Z 00010KT 10/09 A2994 RMK A01 T01020087  RH  093%=      5-min Rain = 0
KSDS 161600Z 00011KT 10/09 A2994 RMK A01 T01020086  RH  092%=      5-min Rain = 0
KSDS 161605Z 00011KT 10/09 A2994 RMK A01 T01040085  RH  091%=      5-min Rain = 0
KSDS 161610Z 00011KT 10/09 A2994 RMK A01 T01040085  RH  091%=      5-min Rain = 0
KSDS 161615Z 01011KT 11/09 A2994 RMK A01 T01060086  RH  090%=      5-min Rain = 0
KSDS 161620Z 36011KT 11/09 A2994 RMK A01 T01060085  RH  089%=      5-min Rain = 0
KSDS 161625Z 01012KT 11/09 A2995 RMK A01 T01060085  RH  089%=      5-min Rain = 0
KSDS 161630Z 02011G16KT 11/08 A2995 RMK A01 T01050084  RH  089%=      5-min Rain = 0
KSDS 161635Z 01011G16KT 10/08 A2995 RMK A01 T01040084  RH  090%=      5-min Rain = 0
KSDS 161640Z 01011KT 11/08 A2995 RMK A01 T01060083  RH  088%=      5-min Rain = 0
KSDS 161645Z 02010G15KT 11/08 A2995 RMK A01 T01050083  RH  089%=      5-min Rain = 0
KSDS 161650Z 03013G18KT 10/08 A2995 RMK A01 T01010084  RH  092%=      5-min Rain = 0
KSDS 161655Z 02013KT 10/08 A2995 RMK A01 T00960082  RH  094%=      5-min Rain = 0
KSDS 161700Z 02013G18KT 10/08 A2996 RMK A01 T00960082  RH  094%=      5-min Rain = 0
KSDS 161705Z 02014KT 10/08 A2996 RMK A01 T00950081  RH  094%=      5-min Rain = 0
KSDS 161710Z 01011KT 10/08 A2996 RMK A01 T00980083  RH  093%=      5-min Rain = 0
KSDS 161715Z 01012G18KT 10/08 A2996 RMK A01 T01000081  RH  090%=      5-min Rain = 0
KSDS 161720Z 01011G17KT 10/08 A2996 RMK A01 T01020081  RH  089%=      5-min Rain = 0
KSDS 161725Z 00014G19KT 10/08 A2996 RMK A01 T01010078  RH  088%=      5-min Rain = 0
KSDS 161730Z 35010G15KT 11/08 A2996 RMK A01 T01050080  RH  087%=      5-min Rain = 0
KSDS 161735Z 00007KT 11/08 A2996 RMK A01 T01130083  RH  084%=      5-min Rain = 0
KSDS 161740Z 35009G15KT 12/08 A2996 RMK A01 T01190084  RH  081%=      5-min Rain = 0
KSDS 161745Z 35012KT 12/08 A2996 RMK A01 T01230080  RH  077%=      5-min Rain = 0
KSDS 161750Z 35013KT 12/08 A2996 RMK A01 T01240079  RH  076%=      5-min Rain = 0
KSDS 161755Z 35013KT 13/08 A2996 RMK A01 T01310079  RH  073%=      5-min Rain = 0
KSDS 161800Z 01016KT 14/08 A2996 RMK A01 T01350076  RH  069%=      5-min Rain = 0
KSDS 161805Z 01013KT 14/08 A2996 RMK A01 T01350076  RH  069%=      5-min Rain = 0
KSDS 161810Z 00014G19KT 14/07 A2995 RMK A01 T01360073  RH  068%=      5-min Rain = 0
KSDS 161815Z 01014KT 14/07 A2995 RMK A01 T01350073  RH  068%=      5-min Rain = 0
KSDS 161820Z 01014KT 14/07 A2995 RMK A01 T01380071  RH  066%=      5-min Rain = 0
KSDS 161825Z 01012G17KT 15/07 A2995 RMK A01 T01450069  RH  062%=      5-min Rain = 0
KSDS 161830Z 00014G21KT 14/07 A2995 RMK A01 T01440068  RH  062%=      5-min Rain = 0
KSDS 161835Z 00013G19KT 15/06 A2995 RMK A01 T01480064  RH  059%=      5-min Rain = 0
KSDS 161840Z 01018G24KT 15/07 A2995 RMK A01 T01460072  RH  063%=      5-min Rain = 0
KSDS 161845Z 02017G23KT 15/07 A2995 RMK A01 T01450072  RH  063%=      5-min Rain = 0
KSDS 161850Z 03016KT 15/07 A2996 RMK A01 T01450071  RH  063%=      5-min Rain = 0
KSDS 161855Z 03015KT 14/07 A2996 RMK A01 T01440068  RH  062%=      5-min Rain = 0
KSDS 161900Z 03014G20KT 14/07 A2996 RMK A01 T01430069  RH  062%=      5-min Rain = 0
KSDS 161905Z 01014G19KT 14/06 A2996 RMK A01 T01410064  RH  061%=      5-min Rain = 0
KSDS 161910Z 02013G18KT 14/07 A2995 RMK A01 T01430066  RH  061%=      5-min Rain = 0
KSDS 161915Z 01012KT 15/06 A2995 RMK A01 T01470063  RH  058%=      5-min Rain = 0
KSDS 161920Z 02015G23KT 15/06 A2995 RMK A01 T01510063  RH  057%=      5-min Rain = 0
KSDS 161925Z 02015KT 15/06 A2995 RMK A01 T01500062  RH  057%=      5-min Rain = 0
KSDS 161930Z 03014G21KT 15/06 A2996 RMK A01 T01540060  RH  055%=      5-min Rain = 0
KSDS 161935Z 03014G20KT 15/06 A2995 RMK A01 T01520057  RH  054%=      5-min Rain = 0
KSDS 161940Z 02016G22KT 16/06 A2995 RMK A01 T01570056  RH  052%=      5-min Rain = 0
KSDS 161945Z 01015G20KT 15/05 A2995 RMK A01 T01510054  RH  054%=      5-min Rain = 0
KSDS 161950Z 01013G20KT 16/06 A2995 RMK A01 T01590055  RH  051%=      5-min Rain = 0
KSDS 161955Z 01014G21KT 16/05 A2995 RMK A01 T01610050  RH  049%=      5-min Rain = 0
KSDS 162000Z 02015KT 16/05 A2995 RMK A01 T01610051  RH  049%=      5-min Rain = 0
KSDS 162005Z 02013G20KT 16/05 A2996 RMK A01 T01580047  RH  049%=      5-min Rain = 0
KSDS 162010Z 03012G19KT 16/05 A2996 RMK A01 T01560048  RH  050%=      5-min Rain = 0
KSDS 162015Z 02013G18KT 16/05 A2996 RMK A01 T01570047  RH  049%=      5-min Rain = 0
KSDS 162020Z 01013G18KT 16/05 A2996 RMK A01 T01580047  RH  049%=      5-min Rain = 0
KSDS 162025Z 01014G20KT 16/04 A2996 RMK A01 T01600042  RH  046%=      5-min Rain = 0
KSDS 162030Z 01012G18KT 16/05 A2996 RMK A01 T01610045  RH  047%=      5-min Rain = 0
KSDS 162035Z 01016G22KT 16/04 A2996 RMK A01 T01550041  RH  047%=      5-min Rain = 0
KSDS 162040Z 02013G20KT 16/04 A2996 RMK A01 T01560041  RH  047%=      5-min Rain = 0
KSDS 162045Z 04012G17KT 16/04 A2996 RMK A01 T01620043  RH  046%=      5-min Rain = 0
KSDS 162050Z 02017G24KT 16/04 A2996 RMK A01 T01630039  RH  044%=      5-min Rain = 0
KSDS 162055Z 01013G20KT 16/03 A2995 RMK A01 T01570033  RH  044%=      5-min Rain = 0
KSDS 162100Z 02015G23KT 16/04 A2995 RMK A01 T01620035  RH  043%=      5-min Rain = 0
KSDS 162105Z 03014G22KT 16/03 A2995 RMK A01 T01610033  RH  043%=      5-min Rain = 0
KSDS 162110Z 02013G18KT 16/03 A2995 RMK A01 T01600034  RH  043%=      5-min Rain = 0
KSDS 162115Z 02015G22KT 17/04 A2995 RMK A01 T01650035  RH  043%=      5-min Rain = 0
KSDS 162120Z 03015G21KT 17/03 A2995 RMK A01 T01670033  RH  041%=      5-min Rain = 0
KSDS 162125Z 03011G17KT 17/03 A2995 RMK A01 T01650027  RH  040%=      5-min Rain = 0
KSDS 162130Z 02014G24KT 16/03 A2994 RMK A01 T01630029  RH  041%=      5-min Rain = 0
KSDS 162135Z 03017G24KT 16/03 A2995 RMK A01 T01630030  RH  042%=      5-min Rain = 0
KSDS 162140Z 02014G19KT 16/03 A2995 RMK A01 T01560027  RH  043%=      5-min Rain = 0
KSDS 162145Z 02014G21KT 16/03 A2995 RMK A01 T01550025  RH  042%=      5-min Rain = 0
KSDS 162150Z 01014G19KT 16/03 A2995 RMK A01 T01580027  RH  042%=      5-min Rain = 0
KSDS 162155Z 01014G22KT 17/02 A2995 RMK A01 T01650024  RH  039%=      5-min Rain = 0
KSDS 162200Z 01015KT 16/02 A2995 RMK A01 T01620023  RH  040%=      5-min Rain = 0
KSDS 162205Z 01015G23KT 15/02 A2995 RMK A01 T01540021  RH  041%=      5-min Rain = 0
KSDS 162210Z 02017G23KT 15/02 A2996 RMK A01 T01520022  RH  042%=      5-min Rain = 0
KSDS 162215Z 02016G21KT 15/02 A2996 RMK A01 T01520021  RH  042%=      5-min Rain = 0
KSDS 162220Z 02015G21KT 16/02 A2996 RMK A01 T01630023  RH  040%=      5-min Rain = 0
KSDS 162225Z 01014G20KT 17/02 A2996 RMK A01 T01660020  RH  038%=      5-min Rain = 0
KSDS 162230Z 02017G22KT 16/02 A2996 RMK A01 T01630021  RH  039%=      5-min Rain = 0
KSDS 162235Z 02018G26KT 16/02 A2997 RMK A01 T01550018  RH  040%=      5-min Rain = 0
KSDS 162240Z 02015G21KT 16/02 A2997 RMK A01 T01580016  RH  039%=      5-min Rain = 0
KSDS 162245Z 01016G22KT 16/01 A2997 RMK A01 T01610014  RH  037%=      5-min Rain = 0
KSDS 162250Z 02019G26KT 16/01 A2997 RMK A01 T01570013  RH  038%=      5-min Rain = 0
KSDS 162255Z 02014G22KT 15/01 A2997 RMK A01 T01530012  RH  039%=      5-min Rain = 0
KSDS 162300Z 01015G21KT 15/01 A2997 RMK A01 T01530012  RH  039%=      5-min Rain = 0
KSDS 162305Z 03016G21KT 16/01 A2997 RMK A01 T01550011  RH  038%=      5-min Rain = 0
KSDS 162310Z 03017KT 15/01 A2997 RMK A01 T01520010  RH  039%=      5-min Rain = 0
KSDS 162315Z 03017G23KT 15/01 A2997 RMK A01 T01500010  RH  039%=      5-min Rain = 0
KSDS 162320Z 04016G22KT 15/01 A2997 RMK A01 T01510007  RH  038%=      5-min Rain = 0
KSDS 162325Z 03014G21KT 15/01 A2998 RMK A01 T01510006  RH  038%=      5-min Rain = 0
KSDS 162330Z 03017G24KT 15/01 A2998 RMK A01 T01480006  RH  038%=      5-min Rain = 0
KSDS 162335Z 04019G24KT 15/01 A2998 RMK A01 T01460008  RH  039%=      5-min Rain = 0
KSDS 162340Z 03017G22KT 15/01 A2998 RMK A01 T01460008  RH  039%=      5-min Rain = 0
KSDS 162345Z 03016G24KT 15/01 A2998 RMK A01 T01460007  RH  039%=      5-min Rain = 0
KSDS 162350Z 03015KT 15/01 A2999 RMK A01 T01460009  RH  040%=      5-min Rain = 0
KSDS 162355Z 03017G22KT 14/01 A2999 RMK A01 T01430007  RH  040%=      5-min Rain = 0
KSDS 170000Z 03020G26KT 14/01 A2999 RMK A01 T01380006  RH  041%=      5-min Rain = 0
KSDS 170005Z 03019G25KT 14/01 A2999 RMK A01 T01350006  RH  042%=      5-min Rain = 0
KSDS 170010Z 03018G24KT 13/01 A2999 RMK A01 T01330006  RH  042%=      5-min Rain = 0
KSDS 170015Z 03017G22KT 13/01 A2999 RMK A01 T01330006  RH  042%=      5-min Rain = 0
KSDS 170020Z 04019G25KT 13/00 A2999 RMK A01 T01290003  RH  043%=      5-min Rain = 0
KSDS 170025Z 03018G25KT 13/00 A2999 RMK A01 T01260002  RH  043%=      5-min Rain = 0
KSDS 170030Z 03017G24KT 12/00 A30 RMK A01 T01230001  RH  043%=      5-min Rain = 0
KSDS 170035Z 04018G24KT 12/00 A3001 RMK A01 T01210001  RH  044%=      5-min Rain = 0
KSDS 170040Z 04018G23KT 12/00 A3001 RMK A01 T01170001  RH  045%=      5-min Rain = 0
KSDS 170045Z 03016G22KT 11/00 A3002 RMK A01 T011200-0  RH  046%=      5-min Rain = 0
KSDS 170050Z 03018G24KT 11/00 A3002 RMK A01 T01110000  RH  047%=      5-min Rain = 0
KSDS 170055Z 03019G25KT 11/00 A3002 RMK A01 T01060002  RH  049%=      5-min Rain = 0
KSDS 170100Z 04020G26KT 10/00 A3002 RMK A01 T01020002  RH  051%=      5-min Rain = 0
KSDS 170105Z 04022G28KT 10/00 A3002 RMK A01 T00980003  RH  052%=      5-min Rain = 0
KSDS 170110Z 03019G25KT 10/00 A3002 RMK A01 T00950002  RH  053%=      5-min Rain = 0
KSDS 170115Z 03019G24KT 09/00 A3003 RMK A01 T00920002  RH  054%=      5-min Rain = 0
KSDS 170120Z 04018G25KT 09/00 A3003 RMK A01 T00900003  RH  055%=      5-min Rain = 0
KSDS 170125Z 04018G23KT 09/00 A3003 RMK A01 T00870002  RH  056%=      5-min Rain = 0
KSDS 170130Z 04019G25KT 09/00 A3004 RMK A01 T00860001  RH  056%=      5-min Rain = 0
KSDS 170135Z 04019G24KT 09/M00 A3004 RMK A01 T00851002  RH  055%=      5-min Rain = 0
KSDS 170140Z 04016KT 08/M00 A3006 RMK A01 T00841003  RH  055%=      5-min Rain = 0
KSDS 170145Z 03017G24KT 08/M00 A3006 RMK A01 T00821003  RH  055%=      5-min Rain = 0
KSDS 170150Z 04016G21KT 08/M00 A3006 RMK A01 T00801001  RH  057%=      5-min Rain = 0
KSDS 170155Z 04015G21KT 08/00 A3007 RMK A01 T00790000  RH  058%=      5-min Rain = 0
KSDS 170200Z 04017G23KT 08/00 A3008 RMK A01 T00780001  RH  059%=      5-min Rain = 0
KSDS 170205Z 04019G25KT 08/00 A3008 RMK A01 T00760000  RH  060%=      5-min Rain = 0
KSDS 170210Z 04019G27KT 07/00 A3008 RMK A01 T00740000  RH  060%=      5-min Rain = 0
KSDS 170215Z 03016G23KT 07/00 A3009 RMK A01 T00720000  RH  061%=      5-min Rain = 0
KSDS 170220Z 03016G23KT 07/M00 A3009 RMK A01 T00711002  RH  061%=      5-min Rain = 0
KSDS 170225Z 03015KT 07/M00 A3009 RMK A01 T00691003  RH  061%=      5-min Rain = 0
KSDS 170230Z 03018G23KT 07/M00 A3009 RMK A01 T00681003  RH  061%=      5-min Rain = 0
KSDS 170235Z 03018G24KT 07/M00 A3009 RMK A01 T00671003  RH  061%=      5-min Rain = 0
KSDS 170240Z 03018G24KT 07/M00 A301 RMK A01 T00661002  RH  062%=      5-min Rain = 0
KSDS 170245Z 03018G23KT 07/M00 A301 RMK A01 T00651001  RH  063%=      5-min Rain = 0
KSDS 170250Z 03018G25KT 06/M00 A301 RMK A01 T00641002  RH  063%=      5-min Rain = 0
KSDS 170255Z 03018G25KT 06/M00 A3011 RMK A01 T00631004  RH  063%=      5-min Rain = 0
KSDS 170300Z 03017G22KT 06/M00 A3012 RMK A01 T00621004  RH  063%=      5-min Rain = 0
KSDS 170305Z 03016KT 06/M00 A3012 RMK A01 T00601004  RH  064%=      5-min Rain = 0
KSDS 170310Z 03015G20KT 06/M00 A3013 RMK A01 T00591004  RH  065%=      5-min Rain = 0
KSDS 170315Z 03014KT 06/M00 A3013 RMK A01 T00581003  RH  065%=      5-min Rain = 0
KSDS 170320Z 03017G23KT 06/M00 A3013 RMK A01 T00581003  RH  066%=      5-min Rain = 0
KSDS 170325Z 02017G22KT 06/M00 A3012 RMK A01 T00581003  RH  066%=      5-min Rain = 0
KSDS 170330Z 03019G25KT 06/M00 A3012 RMK A01 T00571003  RH  066%=      5-min Rain = 0
KSDS 170335Z 03018G23KT 06/M00 A3012 RMK A01 T00571003  RH  066%=      5-min Rain = 0
KSDS 170340Z 03015G20KT 06/M00 A3012 RMK A01 T00561003  RH  066%=      5-min Rain = 0
KSDS 170345Z 03014G19KT 06/M00 A3012 RMK A01 T00551003  RH  067%=      5-min Rain = 0
KSDS 170350Z 03014G19KT 05/M00 A3012 RMK A01 T00541003  RH  068%=      5-min Rain = 0
KSDS 170355Z 03015G20KT 05/M00 A3012 RMK A01 T00531003  RH  068%=      5-min Rain = 0
KSDS 170400Z 03016G21KT 05/M00 A3012 RMK A01 T00531003  RH  068%=      5-min Rain = 0
KSDS 170405Z 03015G21KT 05/M00 A3012 RMK A01 T00531004  RH  068%=      5-min Rain = 0
KSDS 170410Z 03017KT 05/M01 A3012 RMK A01 T00531006  RH  067%=      5-min Rain = 0
KSDS 170415Z 03015G20KT 05/M01 A3012 RMK A01 T00521006  RH  066%=      5-min Rain = 0
KSDS 170420Z 03015G20KT 05/M01 A3013 RMK A01 T00521006  RH  066%=      5-min Rain = 0
KSDS 170425Z 03015G22KT 05/M01 A3013 RMK A01 T00511007  RH  067%=      5-min Rain = 0
KSDS 170430Z 03014G19KT 05/M01 A3013 RMK A01 T00511007  RH  067%=      5-min Rain = 0
KSDS 170435Z 03013KT 05/M01 A3013 RMK A01 T00501006  RH  068%=      5-min Rain = 0
KSDS 170440Z 03013G18KT 05/M01 A3013 RMK A01 T00491006  RH  068%=      5-min Rain = 0
KSDS 170445Z 03013KT 05/M01 A3013 RMK A01 T00481006  RH  069%=      5-min Rain = 0
KSDS 170450Z 03012KT 05/M01 A3013 RMK A01 T00481006  RH  069%=      5-min Rain = 0
KSDS 170455Z 03013KT 05/M01 A3013 RMK A01 T00471006  RH  069%=      5-min Rain = 0

Page generated in 0.0081 seconds.